Westchester, IL

2:42 AM CDT on October 24, 2014 (GMT -0500)
Mr. Hammes's Weather | Change Station
CLOSE
Current Station
Personal Weather Station
Location: Westchester, IL
Elevation: 195 m
Nearby Weather Stations

Elev 195 m 41.85 °N, 87.87 °W | Updated 19 seconds ago

Overcast
Overcast
12.3 °C
Feels Like 12.3 °C
N
0.0
Wind Variable Wind from WSW
Gusts 0.0 km/h

Today
High -- | Low -- °C
--% Chance of Precip.
Yesterday
High -- | Low -- °C
Precip. -- mm
7:14 AM 5:56 PM
New Moon, 0% visible
Pressure 1018 hPa
Visibility 16.1 kilometers
Clouds Overcast 883 m
Dew Point 4 °C
Humidity 58%
Rainfall 0 mm
Snow Depth Not available.
UV 0 out of 12
Pollen .30 out of 12
Ozone Good
PM2.5 Moderate
Flu Activity No Activity
METAR KMDW 240553Z 20006KT 10SM OVC029 13/07 A3005 RMK AO2 SLP175 60000 T01330067 10144 20133 401670050 58008

More Conditions Fewer Conditions

Pressure 1018 hPa
Visibility 16.1 kilometers
Clouds Overcast 883 m
Dew Point 4 °C
Humidity 58%
Rainfall 0 mm
Snow Depth Not available.
UV 0 out of 12
Pollen .30 out of 12
Ozone Good
PM2.5 Moderate
Flu Activity No Activity
METAR KMDW 240553Z 20006KT 10SM OVC029 13/07 A3005 RMK AO2 SLP175 60000 T01330067 10144 20133 401670050 58008

More Conditions Fewer Conditions

10-Day Weather Forecast

Almanac

Astronomy

Oct. 24, 2014 Rise Set
Actual Time 7:14 AM CDT 5:56 PM CDT
Civil Twilight 6:45 AM CDT 6:24 PM CDT
Nautical Twilight 6:13 AM CDT 6:57 PM CDT
Astronomical Twilight 5:40 AM CDT 7:29 PM CDT
Moon 7:53 AM CDT 6:35 PM CDT
Length of Visible Light 11h 39m
Length of Day
10h 42m
Tomorrow will be 2m 36s shorter.
New Moon, 0% of the Moon is Illuminated
Today
New Moon
Oct 30
First Quarter
Nov 6
Full
Nov 14
Last Quarter
Nov 22
New

Today's Extremes

State Highs State Lows

Community

WunderPhotos

Upload Photos

1,764,512 photos uploaded!

WunderBlogs® & News

Nearby

Air Quality

  Air Quality AQ Index Pollutant
Yesterday Moderate
PM2.5
Yesterday Good
OZONE
Current Moderate
PM2.5
Current Good
OZONE
Friday Moderate
PM2.5
Saturday Good
PM2.5
Sunday Good
PM2.5
Monday Moderate
PM2.5

Snow Depth

Station Depth Elevation
No new snow has been reported.

Earthquake Activity

City Distance Mag. Time & Date
No recent earthquake activity has been reported nearby.
Minimum magnitude displayed is 2.5.

Coastal Water Temperatures

Place Temperature
No Stations Reporting

Nearby Weather Stations